sensor_id;sensor_type;location;lat;lon;timestamp;pressure;altitude;pressure_sealevel;temperature;humidity
57628;BME280;43451;49.060;10.616;2023-02-11T00:00:51;98692.34;;;-6.30;100.00
57628;BME280;43451;49.060;10.616;2023-02-11T00:03:17;98695.13;;;-6.37;100.00
57628;BME280;43451;49.060;10.616;2023-02-11T00:05:42;98684.19;;;-6.40;100.00
57628;BME280;43451;49.060;10.616;2023-02-11T00:08:08;98676.63;;;-6.48;100.00
57628;BME280;43451;49.060;10.616;2023-02-11T00:10:33;98678.91;;;-6.52;100.00
57628;BME280;43451;49.060;10.616;2023-02-11T00:12:59;98683.88;;;-6.56;100.00
57628;BME280;43451;49.060;10.616;2023-02-11T00:15:24;98675.34;;;-6.58;100.00
57628;BME280;43451;49.060;10.616;2023-02-11T00:17:50;98683.06;;;-6.56;100.00
57628;BME280;43451;49.060;10.616;2023-02-11T00:20:15;98675.00;;;-6.49;100.00
57628;BME280;43451;49.060;10.616;2023-02-11T00:22:41;98671.84;;;-6.23;100.00
57628;BME280;43451;49.060;10.616;2023-02-11T00:25:06;98670.91;;;-6.17;100.00
57628;BME280;43451;49.060;10.616;2023-02-11T00:27:32;98666.38;;;-5.93;100.00
57628;BME280;43451;49.060;10.616;2023-02-11T00:29:58;98680.06;;;-5.96;100.00
57628;BME280;43451;49.060;10.616;2023-02-11T00:32:25;98684.25;;;-6.12;100.00
57628;BME280;43451;49.060;10.616;2023-02-11T00:34:51;98690.56;;;-6.13;100.00
57628;BME280;43451;49.060;10.616;2023-02-11T00:37:17;98677.44;;;-6.08;100.00
57628;BME280;43451;49.060;10.616;2023-02-11T00:39:43;98683.19;;;-5.99;100.00
57628;BME280;43451;49.060;10.616;2023-02-11T00:42:13;98672.97;;;-6.19;100.00
57628;BME280;43451;49.060;10.616;2023-02-11T00:44:38;98674.47;;;-6.11;100.00
57628;BME280;43451;49.060;10.616;2023-02-11T00:47:04;98679.03;;;-6.07;100.00
57628;BME280;43451;49.060;10.616;2023-02-11T00:49:29;98673.72;;;-5.95;100.00
57628;BME280;43451;49.060;10.616;2023-02-11T00:51:55;98678.91;;;-6.00;100.00
57628;BME280;43451;49.060;10.616;2023-02-11T00:54:20;98676.25;;;-6.00;100.00
57628;BME280;43451;49.060;10.616;2023-02-11T00:56:46;98673.72;;;-5.95;100.00
57628;BME280;43451;49.060;10.616;2023-02-11T00:59:11;98662.63;;;-5.92;100.00
57628;BME280;43451;49.060;10.616;2023-02-11T01:01:37;98641.31;;;-6.02;100.00
57628;BME280;43451;49.060;10.616;2023-02-11T01:04:02;98632.81;;;-5.87;100.00
57628;BME280;43451;49.060;10.616;2023-02-11T01:06:28;98632.00;;;-5.88;100.00
57628;BME280;43451;49.060;10.616;2023-02-11T01:08:53;98614.72;;;-5.95;100.00
57628;BME280;43451;49.060;10.616;2023-02-11T01:11:19;98622.47;;;-6.05;100.00
57628;BME280;43451;49.060;10.616;2023-02-11T01:13:46;98612.25;;;-6.14;100.00
57628;BME280;43451;49.060;10.616;2023-02-11T01:16:12;98608.72;;;-6.19;100.00
57628;BME280;43451;49.060;10.616;2023-02-11T01:18:38;98613.84;;;-6.13;100.00
57628;BME280;43451;49.060;10.616;2023-02-11T01:21:06;98606.69;;;-6.00;100.00
57628;BME280;43451;49.060;10.616;2023-02-11T01:23:32;98611.41;;;-5.86;100.00
57628;BME280;43451;49.060;10.616;2023-02-11T01:25:57;98608.94;;;-5.75;100.00
57628;BME280;43451;49.060;10.616;2023-02-11T01:28:25;98607.19;;;-5.70;100.00
57628;BME280;43451;49.060;10.616;2023-02-11T01:30:51;98612.06;;;-5.62;100.00
57628;BME280;43451;49.060;10.616;2023-02-11T01:33:18;98606.41;;;-5.53;100.00
57628;BME280;43451;49.060;10.616;2023-02-11T01:35:44;98607.94;;;-5.57;100.00
57628;BME280;43451;49.060;10.616;2023-02-11T01:38:23;98607.50;;;-5.49;100.00
57628;BME280;43451;49.060;10.616;2023-02-11T01:40:52;98603.19;;;-5.39;100.00
57628;BME280;43451;49.060;10.616;2023-02-11T01:43:18;98603.97;;;-5.21;100.00
57628;BME280;43451;49.060;10.616;2023-02-11T01:48:12;98607.84;;;-5.46;100.00
57628;BME280;43451;49.060;10.616;2023-02-11T01:50:41;98610.56;;;-5.57;100.00
57628;BME280;43451;49.060;10.616;2023-02-11T01:53:08;98597.25;;;-5.63;100.00
57628;BME280;43451;49.060;10.616;2023-02-11T01:55:53;98598.19;;;-5.69;100.00
57628;BME280;43451;49.060;10.616;2023-02-11T01:58:40;98593.16;;;-5.53;100.00
57628;BME280;43451;49.060;10.616;2023-02-11T02:01:10;98595.31;;;-5.50;100.00
57628;BME280;43451;49.060;10.616;2023-02-11T02:03:39;98598.38;;;-5.58;100.00
57628;BME280;43451;49.060;10.616;2023-02-11T02:06:18;98593.06;;;-5.58;100.00
57628;BME280;43451;49.060;10.616;2023-02-11T02:08:57;98587.53;;;-5.40;100.00
57628;BME280;43451;49.060;10.616;2023-02-11T02:11:26;98584.97;;;-5.35;100.00
57628;BME280;43451;49.060;10.616;2023-02-11T02:13:51;98582.03;;;-5.39;100.00
57628;BME280;43451;49.060;10.616;2023-02-11T02:16:19;98579.59;;;-5.40;100.00
57628;BME280;43451;49.060;10.616;2023-02-11T02:19:05;98571.91;;;-5.42;100.00
57628;BME280;43451;49.060;10.616;2023-02-11T02:26:46;98592.44;;;-5.32;100.00
57628;BME280;43451;49.060;10.616;2023-02-11T02:40:54;98567.72;;;-5.38;100.00
57628;BME280;43451;49.060;10.616;2023-02-11T02:43:23;98568.34;;;-5.30;100.00
57628;BME280;43451;49.060;10.616;2023-02-11T02:45:50;98563.72;;;-5.23;100.00
57628;BME280;43451;49.060;10.616;2023-02-11T02:48:32;98560.72;;;-5.27;100.00
57628;BME280;43451;49.060;10.616;2023-02-11T02:59:08;98552.09;;;-5.00;100.00
57628;BME280;43451;49.060;10.616;2023-02-11T03:07:29;98541.84;;;-5.14;100.00
57628;BME280;43451;49.060;10.616;2023-02-11T03:10:01;98542.84;;;-5.20;100.00
57628;BME280;43451;49.060;10.616;2023-02-11T03:12:31;98543.94;;;-5.16;100.00
57628;BME280;43451;49.060;10.616;2023-02-11T03:14:58;98540.84;;;-5.07;100.00
57628;BME280;43451;49.060;10.616;2023-02-11T03:17:25;98543.44;;;-5.13;100.00
57628;BME280;43451;49.060;10.616;2023-02-11T03:19:52;98550.28;;;-5.17;100.00
57628;BME280;43451;49.060;10.616;2023-02-11T03:22:24;98544.34;;;-5.07;100.00
57628;BME280;43451;49.060;10.616;2023-02-11T03:24:50;98542.41;;;-5.11;100.00
57628;BME280;43451;49.060;10.616;2023-02-11T03:32:23;98539.88;;;-5.01;100.00
57628;BME280;43451;49.060;10.616;2023-02-11T03:35:08;98546.94;;;-4.90;100.00
57628;BME280;43451;49.060;10.616;2023-02-11T03:37:39;98546.84;;;-4.95;100.00
57628;BME280;43451;49.060;10.616;2023-02-11T03:40:14;98535.28;;;-4.89;100.00
57628;BME280;43451;49.060;10.616;2023-02-11T03:45:35;98537.91;;;-4.89;100.00
57628;BME280;43451;49.060;10.616;2023-02-11T03:48:15;98532.63;;;-4.89;100.00
57628;BME280;43451;49.060;10.616;2023-02-11T03:50:44;98531.75;;;-4.73;100.00
57628;BME280;43451;49.060;10.616;2023-02-11T03:53:11;98543.50;;;-4.69;100.00
57628;BME280;43451;49.060;10.616;2023-02-11T03:55:39;98543.50;;;-4.69;100.00
57628;BME280;43451;49.060;10.616;2023-02-11T03:58:06;98551.97;;;-4.67;100.00
57628;BME280;43451;49.060;10.616;2023-02-11T04:00:35;98553.53;;;-4.71;100.00
57628;BME280;43451;49.060;10.616;2023-02-11T04:03:04;98553.09;;;-4.62;100.00
57628;BME280;43451;49.060;10.616;2023-02-11T04:05:30;98538.19;;;-4.69;100.00
57628;BME280;43451;49.060;10.616;2023-02-11T04:07:56;98547.72;;;-4.68;100.00
57628;BME280;43451;49.060;10.616;2023-02-11T04:10:21;98553.94;;;-4.35;100.00
57628;BME280;43451;49.060;10.616;2023-02-11T04:12:47;98555.41;;;-4.44;100.00
57628;BME280;43451;49.060;10.616;2023-02-11T04:15:12;98555.94;;;-4.47;100.00
57628;BME280;43451;49.060;10.616;2023-02-11T04:17:38;98569.81;;;-4.40;100.00
57628;BME280;43451;49.060;10.616;2023-02-11T04:20:04;98567.75;;;-4.33;100.00
57628;BME280;43451;49.060;10.616;2023-02-11T04:22:29;98560.97;;;-4.24;100.00
57628;BME280;43451;49.060;10.616;2023-02-11T04:24:55;98556.56;;;-4.13;100.00
57628;BME280;43451;49.060;10.616;2023-02-11T04:27:20;98550.50;;;-4.08;100.00
57628;BME280;43451;49.060;10.616;2023-02-11T04:29:46;98562.56;;;-3.95;100.00
57628;BME280;43451;49.060;10.616;2023-02-11T04:32:11;98561.16;;;-4.03;100.00
57628;BME280;43451;49.060;10.616;2023-02-11T04:34:37;98555.81;;;-4.08;100.00
57628;BME280;43451;49.060;10.616;2023-02-11T04:37:03;98554.03;;;-3.98;100.00
57628;BME280;43451;49.060;10.616;2023-02-11T04:39:28;98541.63;;;-3.92;100.00
57628;BME280;43451;49.060;10.616;2023-02-11T04:41:54;98554.56;;;-3.68;100.00
57628;BME280;43451;49.060;10.616;2023-02-11T04:44:19;98536.06;;;-3.58;100.00
57628;BME280;43451;49.060;10.616;2023-02-11T04:46:45;98532.47;;;-3.42;100.00
57628;BME280;43451;49.060;10.616;2023-02-11T04:49:15;98528.75;;;-3.41;100.00
57628;BME280;43451;49.060;10.616;2023-02-11T04:51:41;98520.28;;;-3.38;100.00
57628;BME280;43451;49.060;10.616;2023-02-11T04:54:07;98510.72;;;-3.34;100.00
57628;BME280;43451;49.060;10.616;2023-02-11T04:56:33;98509.19;;;-3.24;100.00
57628;BME280;43451;49.060;10.616;2023-02-11T04:58:58;98516.63;;;-3.27;100.00
57628;BME280;43451;49.060;10.616;2023-02-11T05:01:24;98512.91;;;-3.25;100.00
57628;BME280;43451;49.060;10.616;2023-02-11T05:03:49;98504.91;;;-3.31;100.00
57628;BME280;43451;49.060;10.616;2023-02-11T05:06:15;98510.19;;;-3.36;100.00
57628;BME280;43451;49.060;10.616;2023-02-11T05:08:41;98508.09;;;-3.29;100.00
57628;BME280;43451;49.060;10.616;2023-02-11T05:11:08;98500.19;;;-3.23;100.00
57628;BME280;43451;49.060;10.616;2023-02-11T05:13:38;98505.03;;;-3.10;100.00
57628;BME280;43451;49.060;10.616;2023-02-11T05:16:04;98506.56;;;-3.14;100.00
57628;BME280;43451;49.060;10.616;2023-02-11T05:18:29;98509.75;;;-3.17;100.00
57628;BME280;43451;49.060;10.616;2023-02-11T05:20:55;98491.22;;;-3.02;100.00
57628;BME280;43451;49.060;10.616;2023-02-11T05:23:20;98504.25;;;-3.06;100.00
57628;BME280;43451;49.060;10.616;2023-02-11T05:25:46;98495.47;;;-3.06;100.00
57628;BME280;43451;49.060;10.616;2023-02-11T05:28:11;98489.34;;;-3.07;100.00
57628;BME280;43451;49.060;10.616;2023-02-11T05:30:37;98493.06;;;-3.08;100.00
57628;BME280;43451;49.060;10.616;2023-02-11T05:33:02;98488.50;;;-3.17;100.00
57628;BME280;43451;49.060;10.616;2023-02-11T05:35:28;98484.75;;;-3.21;100.00
57628;BME280;43451;49.060;10.616;2023-02-11T05:37:53;98492.50;;;-3.15;100.00
57628;BME280;43451;49.060;10.616;2023-02-11T05:40:18;98489.59;;;-3.08;100.00
57628;BME280;43451;49.060;10.616;2023-02-11T05:42:44;98493.03;;;-3.13;100.00
57628;BME280;43451;49.060;10.616;2023-02-11T05:45:09;98487.50;;;-3.06;100.00
57628;BME280;43451;49.060;10.616;2023-02-11T05:47:35;98487.22;;;-3.05;100.00
57628;BME280;43451;49.060;10.616;2023-02-11T05:50:00;98496.03;;;-3.04;100.00
57628;BME280;43451;49.060;10.616;2023-02-11T05:52:26;98502.44;;;-2.95;100.00
57628;BME280;43451;49.060;10.616;2023-02-11T05:54:51;98502.13;;;-2.98;100.00
57628;BME280;43451;49.060;10.616;2023-02-11T05:57:17;98495.22;;;-2.99;100.00
57628;BME280;43451;49.060;10.616;2023-02-11T05:59:42;98485.41;;;-2.99;100.00
57628;BME280;43451;49.060;10.616;2023-02-11T06:02:08;98495.50;;;-2.96;100.00
57628;BME280;43451;49.060;10.616;2023-02-11T06:04:35;98491.81;;;-2.95;100.00
57628;BME280;43451;49.060;10.616;2023-02-11T06:07:01;98488.91;;;-2.88;100.00
57628;BME280;43451;49.060;10.616;2023-02-11T06:09:26;98492.19;;;-2.61;100.00
57628;BME280;43451;49.060;10.616;2023-02-11T06:11:52;98478.41;;;-2.47;100.00
57628;BME280;43451;49.060;10.616;2023-02-11T06:14:17;98484.84;;;-2.28;100.00
57628;BME280;43451;49.060;10.616;2023-02-11T06:16:43;98487.19;;;-2.42;100.00
57628;BME280;43451;49.060;10.616;2023-02-11T06:19:08;98487.19;;;-2.37;100.00
57628;BME280;43451;49.060;10.616;2023-02-11T06:21:34;98494.91;;;-2.35;100.00
57628;BME280;43451;49.060;10.616;2023-02-11T06:23:59;98497.56;;;-2.35;100.00
57628;BME280;43451;49.060;10.616;2023-02-11T06:26:25;98486.72;;;-2.18;100.00
57628;BME280;43451;49.060;10.616;2023-02-11T06:28:50;98474.22;;;-2.02;100.00
57628;BME280;43451;49.060;10.616;2023-02-11T06:31:16;98471.00;;;-1.94;100.00
57628;BME280;43451;49.060;10.616;2023-02-11T06:33:42;98478.47;;;-1.96;100.00
57628;BME280;43451;49.060;10.616;2023-02-11T06:36:18;98481.91;;;-2.11;100.00
57628;BME280;43451;49.060;10.616;2023-02-11T06:38:44;98465.44;;;-2.03;100.00
57628;BME280;43451;49.060;10.616;2023-02-11T06:41:11;98465.97;;;-2.06;100.00
57628;BME280;43451;49.060;10.616;2023-02-11T06:43:38;98476.88;;;-2.02;100.00
57628;BME280;43451;49.060;10.616;2023-02-11T06:46:04;98467.81;;;-2.01;100.00
57628;BME280;43451;49.060;10.616;2023-02-11T06:48:30;98489.38;;;-1.98;100.00
57628;BME280;43451;49.060;10.616;2023-02-11T06:50:55;98490.19;;;-2.02;100.00
57628;BME280;43451;49.060;10.616;2023-02-11T06:53:20;98485.09;;;-2.04;100.00
57628;BME280;43451;49.060;10.616;2023-02-11T06:55:46;98475.00;;;-1.92;100.00
57628;BME280;43451;49.060;10.616;2023-02-11T06:58:11;98484.06;;;-1.77;100.00
57628;BME280;43451;49.060;10.616;2023-02-11T07:00:37;98479.81;;;-1.83;100.00
57628;BME280;43451;49.060;10.616;2023-02-11T07:03:02;98479.78;;;-1.78;100.00
57628;BME280;43451;49.060;10.616;2023-02-11T07:05:28;98491.78;;;-1.76;100.00
57628;BME280;43451;49.060;10.616;2023-02-11T07:07:53;98485.66;;;-1.66;100.00
57628;BME280;43451;49.060;10.616;2023-02-11T07:10:18;98489.91;;;-1.70;100.00
57628;BME280;43451;49.060;10.616;2023-02-11T07:12:44;98481.91;;;-1.60;100.00
57628;BME280;43451;49.060;10.616;2023-02-11T07:15:09;98473.91;;;-1.55;100.00
57628;BME280;43451;49.060;10.616;2023-02-11T07:17:35;98477.06;;;-1.37;100.00
57628;BME280;43451;49.060;10.616;2023-02-11T07:20:00;98486.44;;;-1.45;100.00
57628;BME280;43451;49.060;10.616;2023-02-11T07:22:26;98484.81;;;-1.36;100.00
57628;BME280;43451;49.060;10.616;2023-02-11T07:24:52;98488.31;;;-1.46;100.00
57628;BME280;43451;49.060;10.616;2023-02-11T07:27:17;98481.34;;;-1.47;100.00
57628;BME280;43451;49.060;10.616;2023-02-11T07:29:44;98470.16;;;-1.38;100.00
57628;BME280;43451;49.060;10.616;2023-02-11T07:32:12;98476.56;;;-1.39;100.00
57628;BME280;43451;49.060;10.616;2023-02-11T07:34:37;98465.34;;;-1.36;100.00
57628;BME280;43451;49.060;10.616;2023-02-11T07:37:03;98445.03;;;-1.17;100.00
57628;BME280;43451;49.060;10.616;2023-02-11T07:39:29;98444.97;;;-0.97;100.00
57628;BME280;43451;49.060;10.616;2023-02-11T07:41:54;98451.88;;;-0.85;100.00
57628;BME280;43451;49.060;10.616;2023-02-11T07:44:21;98470.50;;;-0.80;100.00
57628;BME280;43451;49.060;10.616;2023-02-11T07:46:46;98472.69;;;-0.93;100.00
57628;BME280;43451;49.060;10.616;2023-02-11T07:49:14;98482.84;;;-0.95;100.00
57628;BME280;43451;49.060;10.616;2023-02-11T07:51:40;98489.03;;;-0.50;100.00
57628;BME280;43451;49.060;10.616;2023-02-11T07:54:05;98494.63;;;-0.51;100.00
57628;BME280;43451;49.060;10.616;2023-02-11T07:56:32;98485.13;;;-0.67;100.00
57628;BME280;43451;49.060;10.616;2023-02-11T07:59:02;98487.47;;;-0.61;100.00
57628;BME280;43451;49.060;10.616;2023-02-11T08:01:28;98495.41;;;-0.45;100.00
57628;BME280;43451;49.060;10.616;2023-02-11T08:03:58;98499.34;;;-0.33;100.00
57628;BME280;43451;49.060;10.616;2023-02-11T08:06:27;98494.78;;;-0.27;100.00
57628;BME280;43451;49.060;10.616;2023-02-11T08:08:54;98495.03;;;-0.24;100.00
57628;BME280;43451;49.060;10.616;2023-02-11T08:13:47;98509.38;;;-0.14;100.00
57628;BME280;43451;49.060;10.616;2023-02-11T08:16:27;98507.91;;;0.09;100.00
57628;BME280;43451;49.060;10.616;2023-02-11T08:18:58;98510.06;;;0.07;100.00
57628;BME280;43451;49.060;10.616;2023-02-11T08:21:25;98501.22;;;0.06;100.00
57628;BME280;43451;49.060;10.616;2023-02-11T08:23:51;98493.84;;;0.32;100.00
57628;BME280;43451;49.060;10.616;2023-02-11T08:26:20;98483.09;;;0.37;100.00
57628;BME280;43451;49.060;10.616;2023-02-11T08:28:47;98484.75;;;0.28;100.00
57628;BME280;43451;49.060;10.616;2023-02-11T08:31:18;98493.84;;;0.32;100.00
57628;BME280;43451;49.060;10.616;2023-02-11T08:33:44;98480.16;;;0.39;100.00
57628;BME280;43451;49.060;10.616;2023-02-11T08:36:15;98476.84;;;0.47;100.00
57628;BME280;43451;49.060;10.616;2023-02-11T08:38:41;98478.22;;;0.44;100.00
57628;BME280;43451;49.060;10.616;2023-02-11T08:41:07;98476.34;;;0.45;100.00
57628;BME280;43451;49.060;10.616;2023-02-11T08:43:34;98490.59;;;0.35;100.00
57628;BME280;43451;49.060;10.616;2023-02-11T08:46:01;98476.72;;;0.33;100.00
57628;BME280;43451;49.060;10.616;2023-02-11T08:48:27;98498.00;;;0.43;100.00
57628;BME280;43451;49.060;10.616;2023-02-11T08:50:53;98493.44;;;0.44;100.00
57628;BME280;43451;49.060;10.616;2023-02-11T08:53:19;98484.63;;;0.73;100.00
57628;BME280;43451;49.060;10.616;2023-02-11T08:55:52;98481.78;;;0.88;100.00
57628;BME280;43451;49.060;10.616;2023-02-11T08:58:18;98470.75;;;0.95;100.00
57628;BME280;43451;49.060;10.616;2023-02-11T09:00:44;98479.28;;;1.21;100.00
57628;BME280;43451;49.060;10.616;2023-02-11T09:03:11;98474.66;;;1.26;99.41
57628;BME280;43451;49.060;10.616;2023-02-11T09:05:41;98480.97;;;1.35;99.30
57628;BME280;43451;49.060;10.616;2023-02-11T09:08:06;98472.38;;;1.38;98.26
57628;BME280;43451;49.060;10.616;2023-02-11T09:10:32;98473.84;;;1.50;97.79
57628;BME280;43451;49.060;10.616;2023-02-11T09:12:58;98476.59;;;1.63;97.85
57628;BME280;43451;49.060;10.616;2023-02-11T09:15:24;98476.31;;;1.65;95.94
57628;BME280;43451;49.060;10.616;2023-02-11T09:17:49;98474.91;;;1.49;95.74
57628;BME280;43451;49.060;10.616;2023-02-11T09:20:15;98467.81;;;1.58;95.44
57628;BME280;43451;49.060;10.616;2023-02-11T09:22:40;98467.03;;;1.57;95.68
57628;BME280;43451;49.060;10.616;2023-02-11T09:25:06;98474.47;;;1.60;97.76
57628;BME280;43451;49.060;10.616;2023-02-11T09:27:31;98465.66;;;1.60;98.21
57628;BME280;43451;49.060;10.616;2023-02-11T09:29:57;98470.94;;;1.65;96.46
57628;BME280;43451;49.060;10.616;2023-02-11T09:32:22;98467.09;;;1.71;95.65
57628;BME280;43451;49.060;10.616;2023-02-11T09:34:47;98467.53;;;1.78;97.48
57628;BME280;43451;49.060;10.616;2023-02-11T09:37:13;98471.59;;;1.95;96.22
57628;BME280;43451;49.060;10.616;2023-02-11T09:39:38;98462.88;;;2.03;96.98
57628;BME280;43451;49.060;10.616;2023-02-11T09:44:54;98464.31;;;2.14;98.79
57628;BME280;43451;49.060;10.616;2023-02-11T09:47:27;98478.34;;;2.25;97.72
57628;BME280;43451;49.060;10.616;2023-02-11T09:50:12;98486.75;;;2.18;99.89
57628;BME280;43451;49.060;10.616;2023-02-11T09:55:24;98483.81;;;2.20;99.31
57628;BME280;43451;49.060;10.616;2023-02-11T09:57:49;98485.59;;;2.24;97.87
57628;BME280;43451;49.060;10.616;2023-02-11T10:00:30;98485.09;;;2.22;99.07
57628;BME280;43451;49.060;10.616;2023-02-11T10:03:25;98486.19;;;2.21;98.87
57628;BME280;43451;49.060;10.616;2023-02-11T10:14:24;98473.91;;;2.81;98.41
57628;BME280;43451;49.060;10.616;2023-02-11T10:22:45;98476.19;;;3.01;96.47
57628;BME280;43451;49.060;10.616;2023-02-11T10:28:36;98479.25;;;3.36;95.49
57628;BME280;43451;49.060;10.616;2023-02-11T10:31:23;98474.22;;;3.20;95.58
57628;BME280;43451;49.060;10.616;2023-02-11T10:33:57;98482.75;;;3.22;96.38
57628;BME280;43451;49.060;10.616;2023-02-11T10:36:29;98480.28;;;3.12;96.88
57628;BME280;43451;49.060;10.616;2023-02-11T10:38:58;98475.59;;;3.32;97.69
57628;BME280;43451;49.060;10.616;2023-02-11T10:41:32;98478.56;;;3.44;96.98
57628;BME280;43451;49.060;10.616;2023-02-11T10:44:00;98473.47;;;3.42;97.77
57628;BME280;43451;49.060;10.616;2023-02-11T10:46:30;98469.16;;;3.55;97.15
57628;BME280;43451;49.060;10.616;2023-02-11T10:48:57;98470.88;;;3.65;97.10
57628;BME280;43451;49.060;10.616;2023-02-11T10:51:26;98478.47;;;3.49;99.08
57628;BME280;43451;49.060;10.616;2023-02-11T10:56:40;98473.78;;;3.41;99.86
57628;BME280;43451;49.060;10.616;2023-02-11T11:01:52;98468.06;;;3.70;98.55
57628;BME280;43451;49.060;10.616;2023-02-11T11:06:52;98458.50;;;3.78;98.27
57628;BME280;43451;49.060;10.616;2023-02-11T11:09:29;98459.06;;;4.11;96.37
57628;BME280;43451;49.060;10.616;2023-02-11T11:11:55;98460.44;;;4.08;96.82
57628;BME280;43451;49.060;10.616;2023-02-11T11:14:22;98456.59;;;4.23;95.77
57628;BME280;43451;49.060;10.616;2023-02-11T11:16:53;98462.50;;;4.25;95.88
57628;BME280;43451;49.060;10.616;2023-02-11T11:19:24;98455.75;;;4.36;95.95
57628;BME280;43451;49.060;10.616;2023-02-11T11:21:54;98445.28;;;4.35;97.14
57628;BME280;43451;49.060;10.616;2023-02-11T11:24:27;98444.28;;;4.53;96.16
57628;BME280;43451;49.060;10.616;2023-02-11T11:26:58;98441.06;;;4.74;94.91
57628;BME280;43451;49.060;10.616;2023-02-11T11:29:54;98452.44;;;4.71;94.14
57628;BME280;43451;49.060;10.616;2023-02-11T11:32:26;98442.59;;;4.66;94.45
57628;BME280;43451;49.060;10.616;2023-02-11T11:34:55;98446.22;;;4.61;93.90
57628;BME280;43451;49.060;10.616;2023-02-11T11:37:29;98447.72;;;4.76;92.66
57628;BME280;43451;49.060;10.616;2023-02-11T11:40:02;98433.50;;;4.53;92.46
57628;BME280;43451;49.060;10.616;2023-02-11T11:42:33;98446.56;;;4.37;99.46
57628;BME280;43451;49.060;10.616;2023-02-11T11:45:28;98448.91;;;4.61;96.74
57628;BME280;43451;49.060;10.616;2023-02-11T11:51:05;98448.66;;;5.11;93.84
57628;BME280;43451;49.060;10.616;2023-02-11T11:53:59;98438.88;;;5.33;93.13
57628;BME280;43451;49.060;10.616;2023-02-11T11:56:29;98442.09;;;5.52;92.05
57628;BME280;43451;49.060;10.616;2023-02-11T11:58:59;98446.06;;;5.72;93.04
57628;BME280;43451;49.060;10.616;2023-02-11T12:01:33;98454.34;;;5.93;91.08
57628;BME280;43451;49.060;10.616;2023-02-11T12:04:38;98446.56;;;6.09;89.01
57628;BME280;43451;49.060;10.616;2023-02-11T12:15:18;98463.66;;;6.39;76.21
57628;BME280;43451;49.060;10.616;2023-02-11T12:23:30;98450.34;;;6.17;80.09
57628;BME280;43451;49.060;10.616;2023-02-11T12:26:17;98442.91;;;6.05;78.61
57628;BME280;43451;49.060;10.616;2023-02-11T12:34:59;98453.81;;;5.74;81.90
57628;BME280;43451;49.060;10.616;2023-02-11T12:40:42;98447.94;;;5.63;84.92
57628;BME280;43451;49.060;10.616;2023-02-11T12:51:00;98430.50;;;5.61;86.72
57628;BME280;43451;49.060;10.616;2023-02-11T12:59:28;98429.84;;;5.38;89.51
57628;BME280;43451;49.060;10.616;2023-02-11T13:01:56;98429.53;;;5.48;84.87
57628;BME280;43451;49.060;10.616;2023-02-11T13:04:34;98429.41;;;5.62;86.84
57628;BME280;43451;49.060;10.616;2023-02-11T13:07:08;98418.44;;;5.49;85.02
57628;BME280;43451;49.060;10.616;2023-02-11T13:09:52;98420.03;;;5.50;87.03
57628;BME280;43451;49.060;10.616;2023-02-11T13:12:20;98409.72;;;5.52;85.90
57628;BME280;43451;49.060;10.616;2023-02-11T13:15:08;98417.16;;;5.47;89.33
57628;BME280;43451;49.060;10.616;2023-02-11T13:18:04;98406.22;;;5.61;86.22
57628;BME280;43451;49.060;10.616;2023-02-11T13:23:12;98417.97;;;5.56;83.54
57628;BME280;43451;49.060;10.616;2023-02-11T13:25:47;98412.25;;;5.57;83.19
57628;BME280;43451;49.060;10.616;2023-02-11T13:31:00;98419.22;;;5.41;86.78
57628;BME280;43451;49.060;10.616;2023-02-11T13:33:35;98405.25;;;5.39;85.46
57628;BME280;43451;49.060;10.616;2023-02-11T13:38:28;98410.00;;;5.42;85.61
57628;BME280;43451;49.060;10.616;2023-02-11T13:43:59;98410.31;;;5.32;86.72
57628;BME280;43451;49.060;10.616;2023-02-11T13:46:29;98409.69;;;5.35;86.31
57628;BME280;43451;49.060;10.616;2023-02-11T13:49:17;98413.19;;;5.44;86.03
57628;BME280;43451;49.060;10.616;2023-02-11T13:51:43;98411.63;;;5.43;86.75
57628;BME280;43451;49.060;10.616;2023-02-11T13:54:40;98412.09;;;5.37;87.29
57628;BME280;43451;49.060;10.616;2023-02-11T13:57:35;98414.28;;;5.26;88.60
57628;BME280;43451;49.060;10.616;2023-02-11T14:00:41;98403.38;;;5.31;88.35
57628;BME280;43451;49.060;10.616;2023-02-11T14:17:24;98400.34;;;5.24;89.40
57628;BME280;43451;49.060;10.616;2023-02-11T14:19:52;98396.50;;;5.16;89.44
57628;BME280;43451;49.060;10.616;2023-02-11T14:22:27;98396.34;;;5.12;89.52
57628;BME280;43451;49.060;10.616;2023-02-11T14:25:02;98396.97;;;5.09;89.93
57628;BME280;43451;49.060;10.616;2023-02-11T14:35:16;98404.59;;;5.07;90.28
57628;BME280;43451;49.060;10.616;2023-02-11T14:40:28;98417.69;;;5.00;90.65
57628;BME280;43451;49.060;10.616;2023-02-11T14:45:26;98425.63;;;4.97;90.32
57628;BME280;43451;49.060;10.616;2023-02-11T14:48:02;98425.41;;;4.84;91.67
57628;BME280;43451;49.060;10.616;2023-02-11T14:53:14;98432.22;;;4.82;92.82
57628;BME280;43451;49.060;10.616;2023-02-11T14:55:43;98424.75;;;4.70;93.18
57628;BME280;43451;49.060;10.616;2023-02-11T14:58:18;98422.31;;;4.60;94.32
57628;BME280;43451;49.060;10.616;2023-02-11T15:03:38;98437.41;;;4.70;94.58
57628;BME280;43451;49.060;10.616;2023-02-11T15:11:45;98425.84;;;4.38;96.25
57628;BME280;43451;49.060;10.616;2023-02-11T15:16:50;98429.22;;;4.52;94.96
57628;BME280;43451;49.060;10.616;2023-02-11T15:19:25;98434.72;;;4.78;92.08
57628;BME280;43451;49.060;10.616;2023-02-11T15:21:53;98436.41;;;4.65;91.70
57628;BME280;43451;49.060;10.616;2023-02-11T15:29:32;98435.75;;;4.29;97.68
57628;BME280;43451;49.060;10.616;2023-02-11T15:32:22;98447.56;;;4.19;99.70
57628;BME280;43451;49.060;10.616;2023-02-11T15:34:49;98436.22;;;4.31;98.65
57628;BME280;43451;49.060;10.616;2023-02-11T15:39:46;98440.66;;;4.27;97.83
57628;BME280;43451;49.060;10.616;2023-02-11T15:42:24;98434.06;;;4.10;99.51
57628;BME280;43451;49.060;10.616;2023-02-11T15:45:06;98440.41;;;3.92;100.00
57628;BME280;43451;49.060;10.616;2023-02-11T15:47:32;98443.09;;;4.14;98.76
57628;BME280;43451;49.060;10.616;2023-02-11T15:49:58;98445.31;;;4.12;97.52
57628;BME280;43451;49.060;10.616;2023-02-11T15:52:25;98450.91;;;4.25;96.74